sensor_id;sensor_type;location;lat;lon;timestamp;P1;durP1;ratioP1;P2;durP2;ratioP2
57113;SDS011;42994;51.606;9.988;2022-12-17T00:01:16;55.40;;;26.25;;
57113;SDS011;42994;51.606;9.988;2022-12-17T00:04:00;55.85;;;25.40;;
57113;SDS011;42994;51.606;9.988;2022-12-17T00:06:44;55.47;;;26.48;;
57113;SDS011;42994;51.606;9.988;2022-12-17T00:09:29;57.85;;;27.08;;
57113;SDS011;42994;51.606;9.988;2022-12-17T00:12:13;54.63;;;25.55;;
57113;SDS011;42994;51.606;9.988;2022-12-17T00:14:56;50.60;;;25.88;;
57113;SDS011;42994;51.606;9.988;2022-12-17T00:17:42;63.80;;;28.83;;
57113;SDS011;42994;51.606;9.988;2022-12-17T00:20:26;61.03;;;27.90;;
57113;SDS011;42994;51.606;9.988;2022-12-17T00:23:11;56.72;;;26.05;;
57113;SDS011;42994;51.606;9.988;2022-12-17T00:25:55;75.78;;;31.63;;
57113;SDS011;42994;51.606;9.988;2022-12-17T00:28:40;96.57;;;34.90;;
57113;SDS011;42994;51.606;9.988;2022-12-17T00:31:25;84.70;;;35.63;;
57113;SDS011;42994;51.606;9.988;2022-12-17T00:34:12;81.97;;;35.15;;
57113;SDS011;42994;51.606;9.988;2022-12-17T00:36:56;86.78;;;37.88;;
57113;SDS011;42994;51.606;9.988;2022-12-17T00:39:43;109.72;;;43.50;;
57113;SDS011;42994;51.606;9.988;2022-12-17T00:42:27;100.63;;;40.22;;
57113;SDS011;42994;51.606;9.988;2022-12-17T00:45:11;130.50;;;45.75;;
57113;SDS011;42994;51.606;9.988;2022-12-17T00:47:56;176.43;;;54.70;;
57113;SDS011;42994;51.606;9.988;2022-12-17T00:50:41;225.07;;;71.00;;
57113;SDS011;42994;51.606;9.988;2022-12-17T00:53:25;282.02;;;84.78;;
57113;SDS011;42994;51.606;9.988;2022-12-17T00:56:09;316.95;;;88.07;;
57113;SDS011;42994;51.606;9.988;2022-12-17T00:58:53;323.77;;;95.78;;
57113;SDS011;42994;51.606;9.988;2022-12-17T01:01:38;290.92;;;88.85;;
57113;SDS011;42994;51.606;9.988;2022-12-17T01:04:18;308.20;;;92.40;;
57113;SDS011;42994;51.606;9.988;2022-12-17T01:07:04;269.00;;;78.43;;
57113;SDS011;42994;51.606;9.988;2022-12-17T01:09:48;278.05;;;85.72;;
57113;SDS011;42994;51.606;9.988;2022-12-17T01:12:32;230.43;;;79.47;;
57113;SDS011;42994;51.606;9.988;2022-12-17T01:15:16;189.98;;;66.68;;
57113;SDS011;42994;51.606;9.988;2022-12-17T01:18:00;222.85;;;69.75;;
57113;SDS011;42994;51.606;9.988;2022-12-17T01:20:44;200.75;;;67.60;;
57113;SDS011;42994;51.606;9.988;2022-12-17T01:23:38;224.25;;;71.90;;
57113;SDS011;42994;51.606;9.988;2022-12-17T01:26:22;223.13;;;68.72;;
57113;SDS011;42994;51.606;9.988;2022-12-17T01:29:06;201.75;;;69.60;;
57113;SDS011;42994;51.606;9.988;2022-12-17T01:31:50;215.05;;;72.40;;
57113;SDS011;42994;51.606;9.988;2022-12-17T01:34:35;195.52;;;66.00;;
57113;SDS011;42994;51.606;9.988;2022-12-17T01:37:19;198.63;;;64.85;;
57113;SDS011;42994;51.606;9.988;2022-12-17T01:40:05;184.68;;;61.72;;
57113;SDS011;42994;51.606;9.988;2022-12-17T01:42:50;165.68;;;56.80;;
57113;SDS011;42994;51.606;9.988;2022-12-17T01:45:34;144.75;;;49.70;;
57113;SDS011;42994;51.606;9.988;2022-12-17T01:48:21;138.48;;;50.47;;
57113;SDS011;42994;51.606;9.988;2022-12-17T01:51:10;134.80;;;45.80;;
57113;SDS011;42994;51.606;9.988;2022-12-17T01:53:59;121.40;;;44.20;;
57113;SDS011;42994;51.606;9.988;2022-12-17T01:56:46;119.15;;;42.55;;
57113;SDS011;42994;51.606;9.988;2022-12-17T01:59:33;106.72;;;38.60;;
57113;SDS011;42994;51.606;9.988;2022-12-17T02:02:22;105.93;;;35.72;;
57113;SDS011;42994;51.606;9.988;2022-12-17T02:05:06;120.63;;;35.60;;
57113;SDS011;42994;51.606;9.988;2022-12-17T02:07:53;86.93;;;33.15;;
57113;SDS011;42994;51.606;9.988;2022-12-17T02:10:49;90.22;;;31.10;;
57113;SDS011;42994;51.606;9.988;2022-12-17T02:13:46;99.05;;;33.72;;
57113;SDS011;42994;51.606;9.988;2022-12-17T02:16:40;111.45;;;34.30;;
57113;SDS011;42994;51.606;9.988;2022-12-17T02:19:34;117.80;;;36.45;;
57113;SDS011;42994;51.606;9.988;2022-12-17T02:22:26;133.27;;;38.67;;
57113;SDS011;42994;51.606;9.988;2022-12-17T02:25:38;113.17;;;34.83;;
57113;SDS011;42994;51.606;9.988;2022-12-17T02:28:30;111.15;;;37.67;;
57113;SDS011;42994;51.606;9.988;2022-12-17T02:31:16;116.95;;;35.75;;
57113;SDS011;42994;51.606;9.988;2022-12-17T02:34:01;118.20;;;38.78;;
57113;SDS011;42994;51.606;9.988;2022-12-17T02:36:48;106.95;;;38.45;;
57113;SDS011;42994;51.606;9.988;2022-12-17T02:39:32;106.18;;;37.65;;
57113;SDS011;42994;51.606;9.988;2022-12-17T02:42:17;113.53;;;37.90;;
57113;SDS011;42994;51.606;9.988;2022-12-17T02:45:04;118.70;;;39.50;;
57113;SDS011;42994;51.606;9.988;2022-12-17T02:47:53;118.57;;;39.47;;
57113;SDS011;42994;51.606;9.988;2022-12-17T02:50:37;117.65;;;38.13;;
57113;SDS011;42994;51.606;9.988;2022-12-17T02:53:22;116.25;;;35.22;;
57113;SDS011;42994;51.606;9.988;2022-12-17T02:56:06;101.25;;;34.28;;
57113;SDS011;42994;51.606;9.988;2022-12-17T02:58:50;103.43;;;32.65;;
57113;SDS011;42994;51.606;9.988;2022-12-17T03:01:36;89.38;;;30.50;;
57113;SDS011;42994;51.606;9.988;2022-12-17T03:04:22;97.40;;;30.65;;
57113;SDS011;42994;51.606;9.988;2022-12-17T03:07:05;83.88;;;30.63;;
57113;SDS011;42994;51.606;9.988;2022-12-17T03:09:50;79.60;;;26.98;;
57113;SDS011;42994;51.606;9.988;2022-12-17T03:12:45;65.22;;;25.92;;
57113;SDS011;42994;51.606;9.988;2022-12-17T03:15:29;77.05;;;25.17;;
57113;SDS011;42994;51.606;9.988;2022-12-17T03:18:15;75.80;;;24.38;;
57113;SDS011;42994;51.606;9.988;2022-12-17T03:20:59;68.32;;;24.02;;
57113;SDS011;42994;51.606;9.988;2022-12-17T03:23:44;80.80;;;27.05;;
57113;SDS011;42994;51.606;9.988;2022-12-17T03:26:28;82.43;;;27.83;;
57113;SDS011;42994;51.606;9.988;2022-12-17T03:29:13;78.75;;;25.88;;
57113;SDS011;42994;51.606;9.988;2022-12-17T03:31:57;74.03;;;27.67;;
57113;SDS011;42994;51.606;9.988;2022-12-17T03:34:43;63.45;;;25.75;;
57113;SDS011;42994;51.606;9.988;2022-12-17T03:37:27;61.33;;;24.17;;
57113;SDS011;42994;51.606;9.988;2022-12-17T03:40:12;56.47;;;21.90;;
57113;SDS011;42994;51.606;9.988;2022-12-17T03:42:56;58.58;;;21.08;;
57113;SDS011;42994;51.606;9.988;2022-12-17T03:45:40;45.30;;;19.27;;
57113;SDS011;42994;51.606;9.988;2022-12-17T03:48:24;48.35;;;18.65;;
57113;SDS011;42994;51.606;9.988;2022-12-17T03:51:10;49.85;;;19.13;;
57113;SDS011;42994;51.606;9.988;2022-12-17T03:53:54;49.22;;;18.73;;
57113;SDS011;42994;51.606;9.988;2022-12-17T03:56:38;51.83;;;19.23;;
57113;SDS011;42994;51.606;9.988;2022-12-17T03:59:23;50.95;;;19.67;;
57113;SDS011;42994;51.606;9.988;2022-12-17T04:02:07;47.03;;;18.65;;
57113;SDS011;42994;51.606;9.988;2022-12-17T04:05:03;49.30;;;19.13;;
57113;SDS011;42994;51.606;9.988;2022-12-17T04:07:49;51.53;;;20.50;;
57113;SDS011;42994;51.606;9.988;2022-12-17T04:10:33;49.70;;;21.17;;
57113;SDS011;42994;51.606;9.988;2022-12-17T04:13:18;56.38;;;21.35;;
57113;SDS011;42994;51.606;9.988;2022-12-17T04:16:02;51.47;;;21.38;;
57113;SDS011;42994;51.606;9.988;2022-12-17T04:18:47;61.28;;;22.48;;
57113;SDS011;42994;51.606;9.988;2022-12-17T04:21:31;62.92;;;22.90;;
57113;SDS011;42994;51.606;9.988;2022-12-17T04:24:17;56.10;;;21.65;;
57113;SDS011;42994;51.606;9.988;2022-12-17T04:27:01;50.60;;;21.58;;
57113;SDS011;42994;51.606;9.988;2022-12-17T04:29:45;49.83;;;20.55;;
57113;SDS011;42994;51.606;9.988;2022-12-17T04:32:30;39.13;;;19.40;;
57113;SDS011;42994;51.606;9.988;2022-12-17T04:35:14;59.97;;;21.67;;
57113;SDS011;42994;51.606;9.988;2022-12-17T04:38:00;56.75;;;20.48;;
57113;SDS011;42994;51.606;9.988;2022-12-17T04:40:46;47.15;;;19.88;;
57113;SDS011;42994;51.606;9.988;2022-12-17T04:43:30;53.95;;;19.98;;
57113;SDS011;42994;51.606;9.988;2022-12-17T04:46:14;42.47;;;18.25;;
57113;SDS011;42994;51.606;9.988;2022-12-17T04:48:59;37.08;;;17.10;;
57113;SDS011;42994;51.606;9.988;2022-12-17T04:51:43;44.30;;;17.60;;
57113;SDS011;42994;51.606;9.988;2022-12-17T04:54:27;38.72;;;15.95;;
57113;SDS011;42994;51.606;9.988;2022-12-17T04:57:13;39.78;;;15.55;;
57113;SDS011;42994;51.606;9.988;2022-12-17T04:59:57;31.60;;;15.55;;
57113;SDS011;42994;51.606;9.988;2022-12-17T05:02:42;42.25;;;16.83;;
57113;SDS011;42994;51.606;9.988;2022-12-17T05:05:28;41.45;;;15.82;;
57113;SDS011;42994;51.606;9.988;2022-12-17T05:08:13;33.83;;;14.45;;
57113;SDS011;42994;51.606;9.988;2022-12-17T05:11:00;32.85;;;15.35;;
57113;SDS011;42994;51.606;9.988;2022-12-17T05:13:46;32.85;;;14.05;;
57113;SDS011;42994;51.606;9.988;2022-12-17T05:16:30;33.45;;;15.15;;
57113;SDS011;42994;51.606;9.988;2022-12-17T05:19:14;40.42;;;16.23;;
57113;SDS011;42994;51.606;9.988;2022-12-17T05:21:58;40.40;;;15.82;;
57113;SDS011;42994;51.606;9.988;2022-12-17T05:24:43;41.20;;;17.15;;
57113;SDS011;42994;51.606;9.988;2022-12-17T05:27:27;40.13;;;16.73;;
57113;SDS011;42994;51.606;9.988;2022-12-17T05:30:13;37.25;;;16.23;;
57113;SDS011;42994;51.606;9.988;2022-12-17T05:32:57;42.72;;;17.55;;
57113;SDS011;42994;51.606;9.988;2022-12-17T05:35:42;40.53;;;18.00;;
57113;SDS011;42994;51.606;9.988;2022-12-17T05:38:26;34.90;;;16.60;;
57113;SDS011;42994;51.606;9.988;2022-12-17T05:41:11;34.67;;;16.55;;
57113;SDS011;42994;51.606;9.988;2022-12-17T05:43:55;42.55;;;15.95;;
57113;SDS011;42994;51.606;9.988;2022-12-17T05:46:41;35.92;;;15.98;;
57113;SDS011;42994;51.606;9.988;2022-12-17T05:49:25;36.05;;;16.20;;
57113;SDS011;42994;51.606;9.988;2022-12-17T05:52:21;37.00;;;16.95;;
57113;SDS011;42994;51.606;9.988;2022-12-17T05:55:07;38.10;;;16.33;;
57113;SDS011;42994;51.606;9.988;2022-12-17T05:58:07;43.72;;;17.77;;
57113;SDS011;42994;51.606;9.988;2022-12-17T06:00:54;35.92;;;18.88;;
57113;SDS011;42994;51.606;9.988;2022-12-17T06:03:40;39.25;;;16.25;;
57113;SDS011;42994;51.606;9.988;2022-12-17T06:06:24;32.58;;;17.15;;
57113;SDS011;42994;51.606;9.988;2022-12-17T06:09:09;39.40;;;15.65;;
57113;SDS011;42994;51.606;9.988;2022-12-17T06:11:53;40.90;;;17.48;;
57113;SDS011;42994;51.606;9.988;2022-12-17T06:14:37;38.55;;;16.98;;
57113;SDS011;42994;51.606;9.988;2022-12-17T06:17:21;41.78;;;19.13;;
57113;SDS011;42994;51.606;9.988;2022-12-17T06:20:07;46.22;;;18.60;;
57113;SDS011;42994;51.606;9.988;2022-12-17T06:22:57;42.60;;;18.40;;
57113;SDS011;42994;51.606;9.988;2022-12-17T06:25:42;50.00;;;20.60;;
57113;SDS011;42994;51.606;9.988;2022-12-17T06:28:26;54.20;;;21.08;;
57113;SDS011;42994;51.606;9.988;2022-12-17T06:31:10;59.42;;;20.50;;
57113;SDS011;42994;51.606;9.988;2022-12-17T06:33:54;51.28;;;21.65;;
57113;SDS011;42994;51.606;9.988;2022-12-17T06:36:40;46.47;;;20.23;;
57113;SDS011;42994;51.606;9.988;2022-12-17T06:39:25;47.80;;;20.20;;
57113;SDS011;42994;51.606;9.988;2022-12-17T06:42:09;53.15;;;21.52;;
57113;SDS011;42994;51.606;9.988;2022-12-17T06:44:53;47.15;;;18.73;;
57113;SDS011;42994;51.606;9.988;2022-12-17T06:47:38;46.17;;;20.63;;
57113;SDS011;42994;51.606;9.988;2022-12-17T06:50:22;49.63;;;18.88;;
57113;SDS011;42994;51.606;9.988;2022-12-17T06:53:08;44.95;;;19.27;;
57113;SDS011;42994;51.606;9.988;2022-12-17T06:55:55;49.55;;;19.33;;
57113;SDS011;42994;51.606;9.988;2022-12-17T06:58:40;42.90;;;18.65;;
57113;SDS011;42994;51.606;9.988;2022-12-17T07:01:24;44.15;;;19.55;;
57113;SDS011;42994;51.606;9.988;2022-12-17T07:04:08;40.33;;;18.85;;
57113;SDS011;42994;51.606;9.988;2022-12-17T07:06:53;43.35;;;18.88;;
57113;SDS011;42994;51.606;9.988;2022-12-17T07:09:39;37.17;;;18.58;;
57113;SDS011;42994;51.606;9.988;2022-12-17T07:12:23;42.53;;;19.17;;
57113;SDS011;42994;51.606;9.988;2022-12-17T07:15:07;44.40;;;20.63;;
57113;SDS011;42994;51.606;9.988;2022-12-17T07:17:55;42.38;;;18.75;;
57113;SDS011;42994;51.606;9.988;2022-12-17T07:20:40;44.03;;;19.50;;
57113;SDS011;42994;51.606;9.988;2022-12-17T07:23:25;49.78;;;20.30;;
57113;SDS011;42994;51.606;9.988;2022-12-17T07:26:10;41.53;;;19.90;;
57113;SDS011;42994;51.606;9.988;2022-12-17T07:28:54;43.38;;;20.17;;
57113;SDS011;42994;51.606;9.988;2022-12-17T07:31:39;49.17;;;21.00;;
57113;SDS011;42994;51.606;9.988;2022-12-17T07:34:23;53.15;;;22.23;;
57113;SDS011;42994;51.606;9.988;2022-12-17T07:37:07;50.10;;;20.65;;
57113;SDS011;42994;51.606;9.988;2022-12-17T07:39:52;45.58;;;19.90;;
57113;SDS011;42994;51.606;9.988;2022-12-17T07:42:52;39.22;;;18.58;;
57113;SDS011;42994;51.606;9.988;2022-12-17T07:45:36;43.08;;;19.65;;
57113;SDS011;42994;51.606;9.988;2022-12-17T07:48:20;42.08;;;19.38;;
57113;SDS011;42994;51.606;9.988;2022-12-17T07:51:04;39.20;;;19.48;;
57113;SDS011;42994;51.606;9.988;2022-12-17T07:53:49;51.22;;;20.88;;
57113;SDS011;42994;51.606;9.988;2022-12-17T07:56:33;44.35;;;19.05;;
57113;SDS011;42994;51.606;9.988;2022-12-17T07:59:19;40.83;;;19.50;;
57113;SDS011;42994;51.606;9.988;2022-12-17T08:02:03;39.28;;;18.92;;
57113;SDS011;42994;51.606;9.988;2022-12-17T08:04:47;39.60;;;19.85;;
57113;SDS011;42994;51.606;9.988;2022-12-17T08:07:31;46.17;;;19.75;;
57113;SDS011;42994;51.606;9.988;2022-12-17T08:10:16;41.63;;;20.38;;
57113;SDS011;42994;51.606;9.988;2022-12-17T08:13:01;44.78;;;20.60;;
57113;SDS011;42994;51.606;9.988;2022-12-17T08:15:48;42.70;;;20.42;;
57113;SDS011;42994;51.606;9.988;2022-12-17T08:18:35;47.83;;;20.42;;
57113;SDS011;42994;51.606;9.988;2022-12-17T08:21:20;45.80;;;20.08;;
57113;SDS011;42994;51.606;9.988;2022-12-17T08:24:04;44.05;;;21.48;;
57113;SDS011;42994;51.606;9.988;2022-12-17T08:26:49;36.35;;;19.20;;
57113;SDS011;42994;51.606;9.988;2022-12-17T08:29:33;47.63;;;20.55;;
57113;SDS011;42994;51.606;9.988;2022-12-17T08:32:18;44.92;;;21.10;;
57113;SDS011;42994;51.606;9.988;2022-12-17T08:35:03;46.78;;;23.02;;
57113;SDS011;42994;51.606;9.988;2022-12-17T08:37:47;53.20;;;25.23;;
57113;SDS011;42994;51.606;9.988;2022-12-17T08:40:32;62.72;;;24.35;;
57113;SDS011;42994;51.606;9.988;2022-12-17T08:43:16;55.97;;;24.52;;
57113;SDS011;42994;51.606;9.988;2022-12-17T08:46:00;54.67;;;23.95;;
57113;SDS011;42994;51.606;9.988;2022-12-17T08:48:46;57.72;;;24.30;;
57113;SDS011;42994;51.606;9.988;2022-12-17T08:51:30;53.75;;;24.42;;
57113;SDS011;42994;51.606;9.988;2022-12-17T08:54:15;55.72;;;25.08;;
57113;SDS011;42994;51.606;9.988;2022-12-17T08:56:59;58.40;;;25.40;;
57113;SDS011;42994;51.606;9.988;2022-12-17T08:59:43;65.75;;;27.88;;
57113;SDS011;42994;51.606;9.988;2022-12-17T09:02:28;64.40;;;26.85;;
57113;SDS011;42994;51.606;9.988;2022-12-17T09:05:14;63.63;;;27.73;;
57113;SDS011;42994;51.606;9.988;2022-12-17T09:07:58;63.28;;;27.75;;
57113;SDS011;42994;51.606;9.988;2022-12-17T09:10:43;73.00;;;32.35;;
57113;SDS011;42994;51.606;9.988;2022-12-17T09:13:23;71.28;;;29.95;;
57113;SDS011;42994;51.606;9.988;2022-12-17T09:16:07;66.32;;;29.20;;
57113;SDS011;42994;51.606;9.988;2022-12-17T09:18:52;66.82;;;29.75;;
57113;SDS011;42994;51.606;9.988;2022-12-17T09:21:37;73.68;;;29.60;;
57113;SDS011;42994;51.606;9.988;2022-12-17T09:24:21;72.88;;;30.58;;
57113;SDS011;42994;51.606;9.988;2022-12-17T09:27:06;66.95;;;30.05;;
57113;SDS011;42994;51.606;9.988;2022-12-17T09:29:50;72.35;;;31.20;;
57113;SDS011;42994;51.606;9.988;2022-12-17T09:32:35;61.78;;;26.67;;
57113;SDS011;42994;51.606;9.988;2022-12-17T09:35:19;70.57;;;26.55;;
57113;SDS011;42994;51.606;9.988;2022-12-17T09:38:13;56.35;;;26.20;;
57113;SDS011;42994;51.606;9.988;2022-12-17T09:40:58;52.70;;;25.25;;
57113;SDS011;42994;51.606;9.988;2022-12-17T09:43:49;62.40;;;26.88;;
57113;SDS011;42994;51.606;9.988;2022-12-17T09:46:42;58.33;;;26.35;;
57113;SDS011;42994;51.606;9.988;2022-12-17T09:49:33;55.75;;;26.95;;
57113;SDS011;42994;51.606;9.988;2022-12-17T09:55:31;57.95;;;23.83;;
57113;SDS011;42994;51.606;9.988;2022-12-17T09:58:25;55.63;;;24.88;;
57113;SDS011;42994;51.606;9.988;2022-12-17T10:01:19;50.95;;;23.80;;
57113;SDS011;42994;51.606;9.988;2022-12-17T10:04:06;59.08;;;24.58;;
57113;SDS011;42994;51.606;9.988;2022-12-17T10:09:57;57.45;;;23.88;;
57113;SDS011;42994;51.606;9.988;2022-12-17T10:13:00;48.78;;;23.50;;
57113;SDS011;42994;51.606;9.988;2022-12-17T10:15:44;53.53;;;24.00;;
57113;SDS011;42994;51.606;9.988;2022-12-17T10:18:28;55.90;;;25.60;;
57113;SDS011;42994;51.606;9.988;2022-12-17T10:21:28;58.67;;;25.55;;
57113;SDS011;42994;51.606;9.988;2022-12-17T10:24:13;52.15;;;24.40;;
57113;SDS011;42994;51.606;9.988;2022-12-17T10:26:57;58.97;;;26.13;;
57113;SDS011;42994;51.606;9.988;2022-12-17T10:29:43;66.95;;;28.00;;
57113;SDS011;42994;51.606;9.988;2022-12-17T10:32:30;62.75;;;28.95;;
57113;SDS011;42994;51.606;9.988;2022-12-17T10:35:18;57.53;;;28.30;;
57113;SDS011;42994;51.606;9.988;2022-12-17T10:38:18;60.03;;;27.95;;
57113;SDS011;42994;51.606;9.988;2022-12-17T10:41:15;65.28;;;28.70;;
57113;SDS011;42994;51.606;9.988;2022-12-17T10:44:17;56.83;;;26.83;;
57113;SDS011;42994;51.606;9.988;2022-12-17T10:47:04;62.30;;;27.60;;
57113;SDS011;42994;51.606;9.988;2022-12-17T10:49:56;58.17;;;24.85;;
57113;SDS011;42994;51.606;9.988;2022-12-17T10:52:42;47.35;;;22.73;;
57113;SDS011;42994;51.606;9.988;2022-12-17T10:55:27;49.28;;;21.75;;
57113;SDS011;42994;51.606;9.988;2022-12-17T10:58:14;47.03;;;20.73;;
57113;SDS011;42994;51.606;9.988;2022-12-17T11:00:59;45.33;;;19.92;;
57113;SDS011;42994;51.606;9.988;2022-12-17T11:03:50;47.88;;;20.10;;
57113;SDS011;42994;51.606;9.988;2022-12-17T11:06:36;46.97;;;20.92;;
57113;SDS011;42994;51.606;9.988;2022-12-17T11:09:28;49.35;;;21.20;;
57113;SDS011;42994;51.606;9.988;2022-12-17T11:12:16;46.40;;;20.48;;
57113;SDS011;42994;51.606;9.988;2022-12-17T11:15:03;40.47;;;20.52;;
57113;SDS011;42994;51.606;9.988;2022-12-17T11:17:57;46.67;;;21.52;;
57113;SDS011;42994;51.606;9.988;2022-12-17T11:20:55;40.35;;;21.15;;
57113;SDS011;42994;51.606;9.988;2022-12-17T11:23:41;44.33;;;21.38;;
57113;SDS011;42994;51.606;9.988;2022-12-17T11:26:29;50.00;;;20.95;;
57113;SDS011;42994;51.606;9.988;2022-12-17T11:29:17;52.20;;;22.85;;
57113;SDS011;42994;51.606;9.988;2022-12-17T11:32:05;53.45;;;23.92;;
57113;SDS011;42994;51.606;9.988;2022-12-17T11:35:02;47.67;;;22.48;;
57113;SDS011;42994;51.606;9.988;2022-12-17T11:37:56;48.53;;;22.48;;
57113;SDS011;42994;51.606;9.988;2022-12-17T11:40:47;56.45;;;21.40;;
57113;SDS011;42994;51.606;9.988;2022-12-17T11:43:38;52.33;;;22.23;;
57113;SDS011;42994;51.606;9.988;2022-12-17T11:46:32;44.95;;;22.38;;
57113;SDS011;42994;51.606;9.988;2022-12-17T11:49:26;52.72;;;21.23;;
57113;SDS011;42994;51.606;9.988;2022-12-17T11:52:20;44.38;;;21.75;;
57113;SDS011;42994;51.606;9.988;2022-12-17T11:55:17;45.20;;;21.35;;
57113;SDS011;42994;51.606;9.988;2022-12-17T11:58:09;44.38;;;21.25;;
57113;SDS011;42994;51.606;9.988;2022-12-17T12:01:00;49.03;;;20.92;;
57113;SDS011;42994;51.606;9.988;2022-12-17T12:03:57;50.00;;;21.52;;
57113;SDS011;42994;51.606;9.988;2022-12-17T12:06:54;47.40;;;21.50;;
57113;SDS011;42994;51.606;9.988;2022-12-17T12:09:53;50.33;;;20.92;;
57113;SDS011;42994;51.606;9.988;2022-12-17T12:12:48;47.88;;;20.58;;
57113;SDS011;42994;51.606;9.988;2022-12-17T12:15:45;46.90;;;21.48;;
57113;SDS011;42994;51.606;9.988;2022-12-17T12:18:38;46.53;;;21.92;;
57113;SDS011;42994;51.606;9.988;2022-12-17T12:21:38;42.80;;;19.90;;
57113;SDS011;42994;51.606;9.988;2022-12-17T12:24:32;58.03;;;22.65;;
57113;SDS011;42994;51.606;9.988;2022-12-17T12:27:34;53.30;;;24.65;;
57113;SDS011;42994;51.606;9.988;2022-12-17T12:30:26;53.83;;;26.20;;
57113;SDS011;42994;51.606;9.988;2022-12-17T12:33:19;60.28;;;26.05;;
57113;SDS011;42994;51.606;9.988;2022-12-17T12:36:14;54.72;;;23.05;;
57113;SDS011;42994;51.606;9.988;2022-12-17T12:39:01;51.90;;;22.27;;
57113;SDS011;42994;51.606;9.988;2022-12-17T12:41:47;53.38;;;23.58;;
57113;SDS011;42994;51.606;9.988;2022-12-17T12:44:37;50.15;;;22.15;;
57113;SDS011;42994;51.606;9.988;2022-12-17T12:47:29;41.40;;;18.13;;
57113;SDS011;42994;51.606;9.988;2022-12-17T12:50:22;40.63;;;20.98;;
57113;SDS011;42994;51.606;9.988;2022-12-17T12:53:13;39.97;;;20.65;;
57113;SDS011;42994;51.606;9.988;2022-12-17T12:55:58;46.40;;;20.05;;
57113;SDS011;42994;51.606;9.988;2022-12-17T12:58:42;47.03;;;20.65;;
57113;SDS011;42994;51.606;9.988;2022-12-17T13:01:32;46.65;;;20.92;;
57113;SDS011;42994;51.606;9.988;2022-12-17T13:04:30;49.10;;;20.80;;
57113;SDS011;42994;51.606;9.988;2022-12-17T13:07:20;44.50;;;20.05;;
57113;SDS011;42994;51.606;9.988;2022-12-17T13:09:50;47.38;;;20.90;;
57113;SDS011;42994;51.606;9.988;2022-12-17T13:12:21;48.65;;;19.25;;
57113;SDS011;42994;51.606;9.988;2022-12-17T13:14:54;41.85;;;20.63;;
57113;SDS011;42994;51.606;9.988;2022-12-17T13:17:29;44.72;;;20.73;;
57113;SDS011;42994;51.606;9.988;2022-12-17T13:20:03;52.40;;;21.90;;
57113;SDS011;42994;51.606;9.988;2022-12-17T13:22:48;41.60;;;19.65;;
57113;SDS011;42994;51.606;9.988;2022-12-17T13:25:17;41.05;;;20.77;;
57113;SDS011;42994;51.606;9.988;2022-12-17T13:27:45;47.20;;;19.90;;
57113;SDS011;42994;51.606;9.988;2022-12-17T13:30:18;37.90;;;17.70;;
57113;SDS011;42994;51.606;9.988;2022-12-17T13:32:49;39.55;;;20.52;;
57113;SDS011;42994;51.606;9.988;2022-12-17T13:35:28;48.95;;;21.52;;
57113;SDS011;42994;51.606;9.988;2022-12-17T13:38:08;56.88;;;24.98;;
57113;SDS011;42994;51.606;9.988;2022-12-17T13:40:42;84.57;;;31.75;;
57113;SDS011;42994;51.606;9.988;2022-12-17T13:43:14;66.20;;;27.40;;
57113;SDS011;42994;51.606;9.988;2022-12-17T13:45:42;60.47;;;24.25;;
57113;SDS011;42994;51.606;9.988;2022-12-17T13:48:17;53.47;;;21.75;;
57113;SDS011;42994;51.606;9.988;2022-12-17T13:50:53;44.40;;;20.35;;
57113;SDS011;42994;51.606;9.988;2022-12-17T13:53:21;41.67;;;18.08;;
57113;SDS011;42994;51.606;9.988;2022-12-17T13:55:48;29.70;;;15.20;;
57113;SDS011;42994;51.606;9.988;2022-12-17T13:58:19;38.90;;;15.75;;
57113;SDS011;42994;51.606;9.988;2022-12-17T14:00:47;31.10;;;15.00;;
57113;SDS011;42994;51.606;9.988;2022-12-17T14:03:15;35.28;;;14.85;;
57113;SDS011;42994;51.606;9.988;2022-12-17T14:08:15;34.15;;;16.08;;
57113;SDS011;42994;51.606;9.988;2022-12-17T14:10:44;38.15;;;16.55;;
57113;SDS011;42994;51.606;9.988;2022-12-17T14:13:16;37.25;;;16.42;;
57113;SDS011;42994;51.606;9.988;2022-12-17T14:15:46;33.67;;;15.93;;
57113;SDS011;42994;51.606;9.988;2022-12-17T14:18:16;31.83;;;16.17;;
57113;SDS011;42994;51.606;9.988;2022-12-17T14:20:46;35.58;;;17.35;;
57113;SDS011;42994;51.606;9.988;2022-12-17T14:23:17;36.00;;;16.40;;
57113;SDS011;42994;51.606;9.988;2022-12-17T14:25:52;38.63;;;18.60;;
57113;SDS011;42994;51.606;9.988;2022-12-17T14:28:20;38.45;;;18.70;;
57113;SDS011;42994;51.606;9.988;2022-12-17T14:30:49;41.47;;;19.80;;
57113;SDS011;42994;51.606;9.988;2022-12-17T14:33:23;38.88;;;18.50;;
57113;SDS011;42994;51.606;9.988;2022-12-17T14:35:52;41.85;;;17.60;;
57113;SDS011;42994;51.606;9.988;2022-12-17T14:38:22;40.45;;;19.02;;
57113;SDS011;42994;51.606;9.988;2022-12-17T14:40:49;43.80;;;19.42;;
57113;SDS011;42994;51.606;9.988;2022-12-17T14:43:16;34.13;;;18.63;;
57113;SDS011;42994;51.606;9.988;2022-12-17T14:45:52;37.38;;;18.85;;
57113;SDS011;42994;51.606;9.988;2022-12-17T14:48:54;34.50;;;18.85;;
57113;SDS011;42994;51.606;9.988;2022-12-17T14:51:29;34.53;;;17.13;;
57113;SDS011;42994;51.606;9.988;2022-12-17T14:54:06;34.60;;;16.17;;
57113;SDS011;42994;51.606;9.988;2022-12-17T14:56:44;31.63;;;16.02;;
57113;SDS011;42994;51.606;9.988;2022-12-17T14:59:23;30.13;;;13.90;;
57113;SDS011;42994;51.606;9.988;2022-12-17T15:01:51;31.08;;;13.43;;
57113;SDS011;42994;51.606;9.988;2022-12-17T15:04:20;31.83;;;13.75;;
57113;SDS011;42994;51.606;9.988;2022-12-17T15:06:47;27.48;;;13.07;;
57113;SDS011;42994;51.606;9.988;2022-12-17T15:09:15;29.00;;;13.55;;
57113;SDS011;42994;51.606;9.988;2022-12-17T15:11:42;22.77;;;10.52;;
57113;SDS011;42994;51.606;9.988;2022-12-17T15:14:08;21.85;;;9.82;;
57113;SDS011;42994;51.606;9.988;2022-12-17T15:16:35;17.85;;;8.10;;
57113;SDS011;42994;51.606;9.988;2022-12-17T15:19:02;14.73;;;6.85;;
57113;SDS011;42994;51.606;9.988;2022-12-17T15:21:29;10.35;;;6.25;;
57113;SDS011;42994;51.606;9.988;2022-12-17T15:23:55;11.60;;;5.55;;
57113;SDS011;42994;51.606;9.988;2022-12-17T15:26:24;12.80;;;4.95;;
57113;SDS011;42994;51.606;9.988;2022-12-17T15:28:51;15.40;;;5.80;;
57113;SDS011;42994;51.606;9.988;2022-12-17T15:31:18;10.52;;;5.55;;
57113;SDS011;42994;51.606;9.988;2022-12-17T15:33:45;12.13;;;4.63;;
57113;SDS011;42994;51.606;9.988;2022-12-17T15:36:11;11.18;;;5.03;;
57113;SDS011;42994;51.606;9.988;2022-12-17T15:38:38;13.25;;;5.10;;
57113;SDS011;42994;51.606;9.988;2022-12-17T15:41:05;13.75;;;5.95;;
57113;SDS011;42994;51.606;9.988;2022-12-17T15:43:47;10.85;;;5.75;;
57113;SDS011;42994;51.606;9.988;2022-12-17T15:46:14;12.27;;;7.03;;
57113;SDS011;42994;51.606;9.988;2022-12-17T15:48:42;16.13;;;6.88;;
57113;SDS011;42994;51.606;9.988;2022-12-17T15:51:08;22.77;;;7.43;;
57113;SDS011;42994;51.606;9.988;2022-12-17T15:53:35;17.95;;;7.90;;
57113;SDS011;42994;51.606;9.988;2022-12-17T15:56:02;16.52;;;8.65;;
57113;SDS011;42994;51.606;9.988;2022-12-17T15:58:29;17.58;;;9.02;;
57113;SDS011;42994;51.606;9.988;2022-12-17T16:00:57;24.30;;;8.93;;
57113;SDS011;42994;51.606;9.988;2022-12-17T16:03:24;19.88;;;8.35;;
57113;SDS011;42994;51.606;9.988;2022-12-17T16:05:51;25.17;;;12.30;;